Airfield :
LOGIN :

Register | Disclaimer

   EN    FR    IT 

 










Legend :    VFR   Marginal VFR   IFR   Intensive IFR   Very Intensive IFR
Visi :
Ceiling :
>= 8 km
>= 3000ft
5 to 8 km
1000 to 3000 ft
1500m to 5 km
500 to 1000 ft
800 to 1500m
200 to 500 ft
< 800m
< 200 ft
Symbols :   Thunderstorms  Fog  Heavy snow  Heavy precipitations  Wind > 20 kt
SIGMETs :     Misc.  Thunderstorms  Icing  Turbulence  Mountain Waves  Volcanic Ashes






- Airport Elevation : 876 ft
- IATA code : MBX


LJMB - Maribor

CURRENT METAR :
  • 020930Z 03007KT 8000 OVC010 M01/M03 Q1021

EXPIRED METARs :
  • 020900Z 04006KT 010V070 8000 OVC010 M02/M03 Q1021
  • 020830Z 03006KT 5000 BR OVC009 M02/M03 Q1021
  • 020800Z 01007KT 5000 BR OVC006 M01/M03 Q1021
  • 020730Z 01005KT 5000 BR OVC006 M01/M02 Q1021 R32/CLRD//
  • 020700Z 01006KT 5000 BR OVC006 M01/M03 Q1021 R32/CLRD//

TAF TAF LJMB
Valid from the 02 at 06:00 until the 03 at 06:00 UTC


020500Z 0206/0306 01007KT 7000 OVC023
TEMPO 0206/0209 3500 BR OVC007
TEMPO 0209/0221 -SN OVC010
BECMG 0221/0223 3500 SN BR OVC010
PROB30
TEMPO 0303/0306 1500 +SN BR OVC003



MET'MAP, your aeronautical weather chart ! - Copyright ORBIFLY December 2007 - Disclaimer

ORBIFLY MET'MAP TEAM :

Programming & Development : Alexandra Zaïnal
Concept & original design : Baudouin d'Aumeries
Assistance for programming : Marc-Olivier Méhu
Technical & hardware support : Manuel Goepfert

Contact : metmap@orbifly.com




SOURCES & CREDITS :

   NOAA